Time;durP1;ratioP1;P1;durP2;ratioP2;P2;SDS_P1;SDS_P2;PMS_P1;PMS_P2;Temp;Humidity;BMP_temperature;BMP_pressure;BME280_temperature;BME280_humidity;BME280_pressure;Samples;Min_cycle;Max_cycle;Signal;HPM_P1;HPM_P2
2023/01/31 00:01:18;;;;;;;22.85;8.32;;;;;;;1.45;100.00;101490.06;4986613;28;20029;-73
2023/01/31 00:03:44;;;;;;;23.40;6.55;;;;;;;1.43;100.00;101496.13;4969361;28;20030;-73
2023/01/31 00:06:17;;;;;;;23.48;7.25;;;;;;;1.42;100.00;101497.00;4990647;27;20029;-73
2023/01/31 00:08:44;;;;;;;23.02;7.45;;;;;;;1.37;100.00;101490.91;4987190;27;20041;-73
2023/01/31 00:11:10;;;;;;;29.98;8.43;;;;;;;1.12;100.00;101439.88;4979800;28;20014;-73
2023/01/31 00:13:35;;;;;;;21.52;8.10;;;;;;;1.19;100.00;101458.03;5008137;27;20873;-73
2023/01/31 00:16:01;;;;;;;25.73;8.32;;;;;;;1.47;100.00;101500.44;4991453;27;20025;-73
2023/01/31 00:18:27;;;;;;;38.88;9.25;;;;;;;1.41;100.00;101506.47;4980079;27;20048;-74
2023/01/31 00:20:52;;;;;;;20.85;8.00;;;;;;;1.32;100.00;101487.44;4970931;28;20941;-73
2023/01/31 00:23:18;;;;;;;23.92;8.30;;;;;;;1.31;100.00;101490.88;4970951;28;20025;-73
2023/01/31 00:25:43;;;;;;;26.77;7.63;;;;;;;1.17;100.00;101479.59;4986891;27;20343;-73
2023/01/31 00:28:09;;;;;;;30.13;8.07;;;;;;;1.18;100.00;101494.28;4979318;27;20067;-73
2023/01/31 00:30:34;;;;;;;20.48;7.55;;;;;;;1.17;100.00;101502.88;5002693;27;20866;-73
2023/01/31 00:32:59;;;;;;;30.80;8.88;;;;;;;1.15;100.00;101504.63;4977356;27;20856;-73
2023/01/31 00:35:25;;;;;;;30.30;8.07;;;;;;;1.13;100.00;101501.13;4997887;28;20028;-73
2023/01/31 00:37:50;;;;;;;29.25;7.85;;;;;;;0.73;100.00;101441.38;4969581;27;20082;-73
2023/01/31 00:40:16;;;;;;;34.05;8.60;;;;;;;1.10;100.00;101496.81;5037395;27;20831;-73
2023/01/31 00:42:43;;;;;;;24.73;7.90;;;;;;;1.03;100.00;101480.38;4970866;27;20550;-72
2023/01/31 00:45:09;;;;;;;25.33;7.80;;;;;;;1.07;100.00;101491.63;4987739;27;20044;-73
2023/01/31 00:47:34;;;;;;;31.55;10.25;;;;;;;1.08;100.00;101498.53;4988836;27;20144;-73
2023/01/31 00:50:00;;;;;;;25.40;8.63;;;;;;;1.00;100.00;101487.25;4993934;28;20036;-73
2023/01/31 00:52:25;;;;;;;20.17;8.57;;;;;;;0.97;100.00;101476.91;4976560;28;21097;-73
2023/01/31 00:54:51;;;;;;;25.38;9.13;;;;;;;1.07;100.00;101490.75;4995824;27;20017;-73
2023/01/31 00:57:16;;;;;;;21.02;9.52;;;;;;;0.97;100.00;101487.25;4974544;28;20793;-73
2023/01/31 00:59:41;;;;;;;26.77;9.63;;;;;;;0.92;100.00;101463.91;4993199;27;20972;-72
2023/01/31 01:02:07;;;;;;;29.20;9.98;;;;;;;1.06;100.00;101494.19;4976479;28;20030;-73
2023/01/31 01:04:32;;;;;;;29.02;10.10;;;;;;;1.02;100.00;101490.72;4990210;28;20029;-73
2023/01/31 01:06:58;;;;;;;25.90;9.43;;;;;;;1.03;100.00;101495.91;5004868;27;20085;-73
2023/01/31 01:09:24;;;;;;;23.20;9.02;;;;;;;1.01;100.00;101486.41;5017176;27;20029;-73
2023/01/31 01:11:50;;;;;;;31.80;9.75;;;;;;;1.08;100.00;101497.66;4998842;27;20040;-73
2023/01/31 01:14:15;;;;;;;28.98;10.07;;;;;;;1.06;100.00;101483.84;4995208;27;20132;-73
2023/01/31 01:16:41;;;;;;;38.85;10.70;;;;;;;1.06;100.00;101496.78;4993303;27;20929;-73
2023/01/31 01:19:14;;;;;;;25.70;10.05;;;;;;;1.02;100.00;101501.94;4969921;27;20029;-73
2023/01/31 01:21:39;;;;;;;38.60;11.55;;;;;;;0.97;100.00;101497.59;4986417;27;20133;-74
2023/01/31 01:24:07;;;;;;;33.10;11.77;;;;;;;1.05;100.00;101508.00;4991142;27;20869;-73
2023/01/31 01:26:34;;;;;;;36.28;11.30;;;;;;;0.96;100.00;101498.44;4975618;28;20044;-73
2023/01/31 01:29:00;;;;;;;38.47;10.63;;;;;;;0.91;100.00;101505.31;4979792;27;20032;-73
2023/01/31 01:31:28;;;;;;;27.50;10.95;;;;;;;0.85;100.00;101485.44;4973518;28;20033;-73
2023/01/31 01:33:59;;;;;;;25.70;9.80;;;;;;;0.89;100.00;101501.84;5012825;27;20120;-72
2023/01/31 01:36:25;;;;;;;36.78;11.90;;;;;;;0.79;100.00;101481.94;4987136;27;20835;-73
2023/01/31 01:38:50;;;;;;;34.22;11.82;;;;;;;0.92;100.00;101487.22;4960233;28;20025;-71
2023/01/31 01:41:16;;;;;;;28.60;12.10;;;;;;;0.61;100.00;101428.38;4974817;27;20118;-73
2023/01/31 01:43:51;;;;;;;34.15;12.35;;;;;;;0.95;100.00;101487.22;4997775;27;20055;-72
2023/01/31 01:46:22;;;;;;;31.25;12.48;;;;;;;0.64;100.00;101428.41;4968351;27;20213;-73
2023/01/31 01:48:51;;;;;;;39.28;12.77;;;;;;;0.66;100.00;101421.50;4998533;27;20037;-73
2023/01/31 01:51:18;;;;;;;36.50;12.90;;;;;;;0.92;100.00;101470.81;4984696;27;20044;-73
2023/01/31 01:53:47;;;;;;;38.97;13.48;;;;;;;0.86;100.00;101471.66;4988125;27;20042;-73
2023/01/31 01:56:16;;;;;;;44.05;14.63;;;;;;;0.82;100.00;101472.47;4986425;27;20037;-73
2023/01/31 01:58:47;;;;;;;41.67;14.20;;;;;;;0.88;100.00;101484.59;4987419;27;20029;-73
2023/01/31 02:01:15;;;;;;;36.88;14.20;;;;;;;0.89;100.00;101487.19;5008212;27;20035;-73
2023/01/31 02:03:42;;;;;;;44.75;14.32;;;;;;;0.85;100.00;101480.25;4987588;27;20908;-73
2023/01/31 02:06:07;;;;;;;34.65;13.88;;;;;;;0.78;100.00;101450.03;4969903;28;20085;-73
2023/01/31 02:08:34;;;;;;;37.67;15.27;;;;;;;0.91;100.00;101463.94;4994031;27;20028;-73
2023/01/31 02:11:01;;;;;;;43.40;14.38;;;;;;;0.93;100.00;101463.06;4992129;27;20025;-72
2023/01/31 02:13:27;;;;;;;41.60;15.95;;;;;;;0.92;100.00;101458.75;4971251;28;20174;-73
2023/01/31 02:15:52;;;;;;;46.58;16.30;;;;;;;0.86;100.00;101443.19;4989145;27;20983;-72
2023/01/31 02:18:19;;;;;;;31.48;15.30;;;;;;;0.85;100.00;101445.75;4975200;28;20098;-73
2023/01/31 02:21:04;;;;;;;31.50;13.93;;;;;;;0.76;100.00;101446.59;4986734;27;20041;-72
2023/01/31 02:23:47;;;;;;;39.33;13.75;;;;;;;0.85;100.00;101454.38;5002511;27;20144;-73
2023/01/31 02:26:34;;;;;;;41.15;15.00;;;;;;;0.90;100.00;101462.19;5003580;27;20038;-73
2023/01/31 02:28:59;;;;;;;45.10;16.02;;;;;;;0.92;100.00;101461.34;4988484;27;20136;-73
2023/01/31 02:31:48;;;;;;;36.22;15.95;;;;;;;1.02;100.00;101470.00;4977623;28;20867;-73
2023/01/31 02:34:27;;;;;;;41.90;16.13;;;;;;;0.96;100.00;101457.91;4977894;28;20824;-72
2023/01/31 02:37:10;;;;;;;50.58;18.50;;;;;;;1.07;100.00;101481.28;4992374;27;20045;-73
2023/01/31 02:40:04;;;;;;;38.92;18.33;;;;;;;1.16;100.00;101470.97;4983353;28;20890;-73
2023/01/31 02:42:34;;;;;;;;;;;;;;;1.20;100.00;101471.84;5018437;28;20051;-73
2023/01/31 02:45:03;;;;;;;39.95;16.75;;;;;;;1.22;100.00;101470.13;4981931;28;19984;-73
2023/01/31 02:47:46;;;;;;;47.95;16.58;;;;;;;1.18;100.00;101464.09;4997659;27;20215;-73
2023/01/31 02:50:37;;;;;;;50.50;16.52;;;;;;;1.15;100.00;101461.44;4964662;28;20076;-73
2023/01/31 02:53:14;;;;;;;48.05;17.65;;;;;;;1.19;100.00;101481.31;4967699;28;20068;-73
2023/01/31 02:56:17;;;;;;;38.95;16.90;;;;;;;1.21;100.00;101483.94;4995601;27;20555;-73
2023/01/31 02:59:20;;;;;;;39.40;17.40;;;;;;;1.30;100.00;101483.97;4981427;28;20048;-73
2023/01/31 03:01:49;;;;;;;53.75;18.60;;;;;;;1.27;100.00;101473.59;4998124;27;20136;-73
2023/01/31 03:04:14;;;;;;;48.42;17.88;;;;;;;1.22;100.00;101470.13;5005331;27;20029;-73
2023/01/31 03:06:53;;;;;;;35.95;17.48;;;;;;;1.26;100.00;101475.31;4992169;27;20025;-72
2023/01/31 03:09:30;;;;;;;37.05;17.35;;;;;;;1.34;100.00;101465.00;4998639;28;20916;-73
2023/01/31 03:12:20;;;;;;;35.75;17.77;;;;;;;1.35;100.00;101461.56;4987088;28;20032;-73
2023/01/31 03:14:45;;;;;;;46.38;17.60;;;;;;;1.45;100.00;101458.16;4994251;28;20102;-73
2023/01/31 03:17:30;;;;;;;38.28;17.55;;;;;;;1.48;100.00;101450.41;5009634;27;20039;-72
2023/01/31 03:20:14;;;;;;;45.60;17.85;;;;;;;1.48;100.00;101447.81;5054486;27;20040;-73
2023/01/31 03:22:43;;;;;;;40.20;18.35;;;;;;;1.46;100.00;101439.16;4980971;28;20032;-73
2023/01/31 03:25:11;;;;;;;35.05;16.25;;;;;;;1.44;100.00;101443.47;4976133;27;20032;-72
2023/01/31 03:27:38;;;;;;;60.03;18.90;;;;;;;1.46;100.00;101446.94;4981366;28;20036;-73
2023/01/31 03:30:12;;;;;;;44.20;17.45;;;;;;;1.44;100.00;101440.88;4976000;28;20026;-72
2023/01/31 03:32:43;;;;;;;38.40;17.90;;;;;;;1.37;100.00;101434.81;4976237;27;20029;-73
2023/01/31 03:35:08;;;;;;;52.35;18.05;;;;;;;1.11;100.00;101414.88;4973578;28;20025;-73
2023/01/31 03:37:42;;;;;;;36.05;16.75;;;;;;;1.39;100.00;101442.59;4992047;28;20821;-73
2023/01/31 03:40:38;;;;;;;45.65;16.73;;;;;;;1.38;100.00;101443.47;4975785;27;20082;-73
2023/01/31 03:43:19;;;;;;;41.22;16.27;;;;;;;1.28;100.00;101415.81;4987610;28;20049;-73
2023/01/31 03:45:48;;;;;;;44.40;18.48;;;;;;;1.30;100.00;101427.03;4990684;27;20080;-73
2023/01/31 03:48:17;;;;;;;51.70;17.42;;;;;;;0.86;100.00;101342.31;4979380;27;20040;-73
2023/01/31 03:50:57;;;;;;;39.45;16.98;;;;;;;1.31;100.00;101415.81;5004831;27;20029;-72
2023/01/31 03:53:49;;;;;;;33.35;16.65;;;;;;;1.13;100.00;101382.09;4983406;28;20067;-73
2023/01/31 03:56:20;;;;;;;42.70;17.25;;;;;;;1.38;100.00;101439.16;4974592;27;20025;-72
2023/01/31 03:58:49;;;;;;;42.28;18.00;;;;;;;0.69;100.00;101328.44;4980729;28;20037;-73
2023/01/31 04:01:16;;;;;;;34.28;17.38;;;;;;;1.32;100.00;101430.50;4992890;27;20024;-73
2023/01/31 04:03:50;;;;;;;41.80;17.63;;;;;;;1.36;100.00;101440.84;4980325;28;20025;-72
2023/01/31 04:06:16;;;;;;;39.10;18.00;;;;;;;1.38;100.00;101435.69;4976252;28;20033;-72
2023/01/31 04:08:42;;;;;;;49.72;18.33;;;;;;;1.19;100.00;101397.63;5007657;27;20037;-72
2023/01/31 04:11:10;;;;;;;48.22;19.75;;;;;;;1.38;100.00;101415.84;4994493;27;20148;-73
2023/01/31 04:13:35;;;;;;;37.50;18.45;;;;;;;1.45;100.00;101421.91;5006644;28;20061;-71
2023/01/31 04:16:01;;;;;;;48.40;19.08;;;;;;;1.43;100.00;101419.31;4993477;27;20025;-72
2023/01/31 04:18:27;;;;;;;46.42;19.73;;;;;;;1.32;100.00;101399.44;4989870;27;20106;-72
2023/01/31 04:20:52;;;;;;;32.15;17.13;;;;;;;1.43;100.00;101418.44;4989745;27;20473;-73
2023/01/31 04:23:18;;;;;;;38.33;19.35;;;;;;;1.43;100.00;101402.91;4988519;27;20034;-72
2023/01/31 04:25:44;;;;;;;56.47;18.38;;;;;;;1.47;100.00;101431.41;5000186;27;20912;-73
2023/01/31 04:28:09;;;;;;;45.72;18.67;;;;;;;1.46;100.00;101423.63;5007654;27;20815;-73
2023/01/31 04:30:34;;;;;;;39.20;17.63;;;;;;;1.50;100.00;101413.28;4994989;27;20079;-72
2023/01/31 04:33:00;;;;;;;31.88;17.42;;;;;;;1.50;100.00;101415.88;4991042;28;20432;-73
2023/01/31 04:35:25;;;;;;;39.03;18.42;;;;;;;1.61;100.00;101434.03;5004011;27;20064;-72
2023/01/31 04:37:51;;;;;;;39.40;18.42;;;;;;;1.61;100.00;101422.81;4991478;27;20141;-72
2023/01/31 04:40:16;;;;;;;40.55;18.13;;;;;;;1.57;100.00;101427.13;5001651;27;20032;-72
2023/01/31 04:42:42;;;;;;;43.33;18.00;;;;;;;1.49;100.00;101428.81;4994576;27;20029;-72
2023/01/31 04:45:08;;;;;;;43.05;19.40;;;;;;;1.54;100.00;101427.97;4990612;27;20044;-72
2023/01/31 04:47:33;;;;;;;47.08;19.52;;;;;;;1.53;100.00;101420.19;4990180;28;20090;-72
2023/01/31 04:49:59;;;;;;;47.33;20.38;;;;;;;1.59;100.00;101424.56;4988464;28;20051;-72
2023/01/31 04:52:24;;;;;;;35.42;17.77;;;;;;;1.52;100.00;101418.50;5001917;27;20041;-71
2023/01/31 04:54:50;;;;;;;47.25;18.85;;;;;;;1.52;100.00;101402.94;4994748;27;20890;-72
2023/01/31 04:57:15;;;;;;;47.78;18.50;;;;;;;1.59;100.00;101417.63;4994406;27;20029;-71
2023/01/31 04:59:41;;;;;;;32.15;17.42;;;;;;;1.60;100.00;101400.34;4996595;27;20025;-72
2023/01/31 05:02:06;;;;;;;45.13;18.10;;;;;;;1.19;100.00;101335.53;4996095;27;20037;-72
2023/01/31 05:04:32;;;;;;;45.40;17.65;;;;;;;1.51;100.00;101390.84;4993246;27;20053;-71
2023/01/31 05:06:57;;;;;;;38.30;17.48;;;;;;;1.59;100.00;101401.25;5038669;27;20046;-71
2023/01/31 05:09:23;;;;;;;54.17;17.75;;;;;;;1.63;100.00;101411.59;5009649;27;20029;-71
2023/01/31 05:11:49;;;;;;;33.90;15.93;;;;;;;1.64;100.00;101392.59;4997583;27;20029;-72
2023/01/31 05:14:15;;;;;;;44.10;17.38;;;;;;;1.78;100.00;101392.63;4988262;27;20025;-71
2023/01/31 05:16:44;;;;;;;33.72;14.45;;;;;;;1.81;100.00;101397.81;4988693;27;20053;-71
2023/01/31 05:19:10;;;;;;;42.33;15.82;;;;;;;1.79;100.00;101392.63;4970984;28;20037;-71
2023/01/31 05:21:53;;;;;;;36.10;14.07;;;;;;;1.82;100.00;101382.28;4989765;27;20021;-71
2023/01/31 05:24:21;;;;;;;32.55;14.85;;;;;;;1.93;100.00;101371.91;4996004;27;20040;-71
2023/01/31 05:26:49;;;;;;;32.85;14.63;;;;;;;1.94;100.00;101366.75;4988042;27;20272;-71
2023/01/31 05:29:15;;;;;;;35.08;13.60;;;;;;;1.89;100.00;101358.09;4960196;28;20051;-72
2023/01/31 05:31:40;;;;;;;31.60;13.82;;;;;;;1.83;100.00;101352.91;4978530;28;20892;-71
2023/01/31 05:34:06;;;;;;;31.75;12.45;;;;;;;1.89;100.00;101352.91;4987556;27;20904;-72
2023/01/31 05:36:31;;;;;;;30.70;12.10;;;;;;;1.79;100.00;101346.00;4987843;27;20079;-71
2023/01/31 05:38:57;;;;;;;27.88;11.88;;;;;;;1.68;100.00;101314.06;4988940;27;20029;-72
2023/01/31 05:41:22;;;;;;;33.25;11.40;;;;;;;1.85;100.00;101340.84;5004805;27;20029;-73
2023/01/31 05:43:47;;;;;;;31.48;11.23;;;;;;;1.86;100.00;101326.16;4998388;27;20443;-71
2023/01/31 05:46:13;;;;;;;29.52;10.70;;;;;;;1.85;100.00;101319.25;4989380;28;20072;-71
2023/01/31 05:48:38;;;;;;;32.38;11.82;;;;;;;1.92;100.00;101342.56;4981762;28;20953;-70
2023/01/31 05:51:04;;;;;;;27.42;10.77;;;;;;;1.95;100.00;101334.78;5004958;27;20021;-72
2023/01/31 05:53:29;;;;;;;19.92;9.65;;;;;;;1.91;100.00;101340.84;4997924;27;20093;-71
2023/01/31 05:55:55;;;;;;;18.85;9.60;;;;;;;1.89;100.00;101337.34;5022396;27;21245;-72
2023/01/31 05:58:20;;;;;;;22.13;9.27;;;;;;;1.89;100.00;101342.53;4990986;28;20038;-72
2023/01/31 06:00:46;;;;;;;26.95;10.35;;;;;;;1.91;100.00;101356.38;5002067;28;20040;-72
2023/01/31 06:03:11;;;;;;;22.73;9.88;;;;;;;1.83;100.00;101349.44;4997048;27;20795;-70
2023/01/31 06:05:39;;;;;;;24.60;10.45;;;;;;;1.82;100.00;101351.19;5015020;27;20614;-72
2023/01/31 06:08:04;;;;;;;23.65;9.18;;;;;;;1.80;100.00;101347.72;5002238;27;20033;-72
2023/01/31 06:10:30;;;;;;;24.00;8.98;;;;;;;1.85;100.00;101335.66;5007388;27;20105;-72
2023/01/31 06:12:55;;;;;;;31.85;9.77;;;;;;;1.90;100.00;101331.31;4993238;27;20823;-72
2023/01/31 06:15:20;;;;;;;23.90;9.23;;;;;;;1.93;100.00;101333.03;4991082;27;20038;-72
2023/01/31 06:17:46;;;;;;;22.50;9.32;;;;;;;1.91;100.00;101346.00;4992515;27;20436;-72
2023/01/31 06:20:11;;;;;;;22.83;8.73;;;;;;;1.85;100.00;101330.47;5040167;27;20986;-72
2023/01/31 06:22:37;;;;;;;20.75;8.60;;;;;;;1.91;100.00;101340.84;4977940;28;20936;-72
2023/01/31 06:25:03;;;;;;;24.33;9.93;;;;;;;1.78;100.00;101315.78;4994453;28;20045;-72
2023/01/31 06:27:33;;;;;;;30.58;9.18;;;;;;;1.85;100.00;101335.66;4991111;28;20045;-71
2023/01/31 06:29:58;;;;;;;26.25;8.63;;;;;;;1.87;100.00;101364.13;4995895;28;20054;-72
2023/01/31 06:32:24;;;;;;;22.42;8.70;;;;;;;1.97;100.00;101366.75;4979049;27;20033;-72
2023/01/31 06:34:49;;;;;;;23.33;8.65;;;;;;;1.89;100.00;101352.91;5044097;27;20075;-72
2023/01/31 06:37:14;;;;;;;27.88;9.10;;;;;;;2.02;100.00;101366.75;5004872;27;20976;-72
2023/01/31 06:39:40;;;;;;;32.65;9.55;;;;;;;1.99;100.00;101346.84;4990529;27;20025;-72
2023/01/31 06:42:05;;;;;;;24.73;8.25;;;;;;;2.20;100.00;101368.47;4998836;27;20819;-71
2023/01/31 06:44:34;;;;;;;25.63;10.30;;;;;;;2.19;100.00;101356.38;4997421;27;20741;-72
2023/01/31 06:47:00;;;;;;;20.95;7.97;;;;;;;2.23;100.00;101360.69;5031203;27;20036;-72
2023/01/31 06:49:26;;;;;;;20.02;7.97;;;;;;;2.27;100.00;101362.41;5001308;27;20215;-72
2023/01/31 06:51:51;;;;;;;30.95;8.95;;;;;;;2.37;100.00;101356.34;5002211;27;20506;-72
2023/01/31 06:54:16;;;;;;;19.85;8.40;;;;;;;2.44;100.00;101364.13;4994762;27;20983;-72
2023/01/31 06:56:44;;;;;;;28.20;8.10;;;;;;;2.45;100.00;101364.97;4997763;28;20025;-71
2023/01/31 06:59:10;;;;;;;19.92;7.57;;;;;;;2.39;100.00;101339.06;5003816;27;20033;-71
2023/01/31 07:01:35;;;;;;;18.23;7.43;;;;;;;2.60;100.00;101353.72;5000020;27;20058;-71
2023/01/31 07:04:01;;;;;;;20.98;7.22;;;;;;;2.49;100.00;101346.81;4992298;27;20045;-71
2023/01/31 07:06:26;;;;;;;20.48;6.93;;;;;;;2.66;100.00;101377.91;4990419;28;20032;-71
2023/01/31 07:08:51;;;;;;;16.20;7.50;;;;;;;2.63;100.00;101357.19;4992625;27;20053;-72
2023/01/31 07:11:17;;;;;;;28.70;8.45;;;;;;;2.68;100.00;101372.72;4993600;27;20061;-71
2023/01/31 07:13:44;;;;;;;21.17;6.72;;;;;;;2.69;100.00;101357.16;4990732;27;20060;-72
2023/01/31 07:16:10;;;;;;;21.02;6.30;;;;;;;2.70;100.00;101345.91;4991013;27;20036;-71
2023/01/31 07:18:35;;;;;;;20.58;7.28;;;;;;;2.76;100.00;101347.63;4997451;27;20129;-72
2023/01/31 07:21:01;;;;;;;16.95;7.07;;;;;;;2.63;100.00;101320.84;4985851;27;20908;-71
2023/01/31 07:23:26;;;;;;;23.90;6.63;;;;;;;2.57;100.00;101316.53;4985617;27;20868;-71
2023/01/31 07:25:52;;;;;;;27.42;7.03;;;;;;;2.87;100.00;101351.88;4985605;27;20060;-72
2023/01/31 07:28:17;;;;;;;15.82;7.10;;;;;;;2.72;100.00;101328.59;4986249;27;20288;-72
2023/01/31 07:30:44;;;;;;;18.33;7.00;;;;;;;2.86;100.00;101345.00;4989340;27;20029;-72
2023/01/31 07:33:10;;;;;;;21.10;6.85;;;;;;;2.87;100.00;101357.06;4998801;27;20064;-72
2023/01/31 07:35:36;;;;;;;18.00;7.00;;;;;;;2.83;100.00;101347.59;4992537;27;20235;-72
2023/01/31 07:38:01;;;;;;;18.40;7.15;;;;;;;2.78;100.00;101333.75;4968247;28;20030;-71
2023/01/31 07:40:27;;;;;;;28.85;7.13;;;;;;;2.83;100.00;101342.41;4967293;28;20034;-72
2023/01/31 07:42:57;;;;;;;21.52;7.10;;;;;;;2.90;100.00;101359.69;4984757;27;20090;-72
2023/01/31 07:45:22;;;;;;;21.30;6.82;;;;;;;2.92;100.00;101360.53;4990177;27;20249;-72
2023/01/31 07:47:48;;;;;;;23.63;7.18;;;;;;;2.90;100.00;101354.50;5002462;27;20025;-72
2023/01/31 07:50:13;;;;;;;16.05;5.25;;;;;;;2.93;100.00;101356.22;5020665;27;20033;-72
2023/01/31 07:52:39;;;;;;;16.02;6.18;;;;;;;2.90;100.00;101354.50;5037763;27;20032;-72
2023/01/31 07:55:05;;;;;;;14.18;5.93;;;;;;;2.94;100.00;101347.56;5042102;27;20030;-71
2023/01/31 07:57:31;;;;;;;15.02;6.18;;;;;;;2.96;100.00;101341.50;5001951;27;20025;-72
2023/01/31 07:59:56;;;;;;;13.75;5.88;;;;;;;2.99;100.00;101338.88;5006114;27;20056;-72
2023/01/31 08:05:13;;;;;;;20.88;6.45;;;;;;;3.08;100.00;101344.03;5010950;27;20043;-72
2023/01/31 08:07:38;;;;;;;22.92;7.38;;;;;;;3.04;100.00;101325.88;5037442;27;20145;-70
2023/01/31 08:10:04;;;;;;;15.30;6.97;;;;;;;2.96;100.00;101312.06;5016717;27;20027;-70
2023/01/31 08:12:30;;;;;;;13.85;6.68;;;;;;;3.14;100.00;101339.69;5020625;27;20027;-70
2023/01/31 08:14:55;;;;;;;23.42;6.80;;;;;;;3.04;100.00;101316.34;4999720;27;20029;-72
2023/01/31 08:17:21;;;;;;;18.38;6.28;;;;;;;3.23;100.00;101331.84;5001852;27;20058;-69
2023/01/31 08:19:46;;;;;;;18.40;6.68;;;;;;;2.99;100.00;101286.09;4993737;27;20864;-71
2023/01/31 08:22:11;;;;;;;15.75;7.45;;;;;;;3.27;100.00;101328.38;5001000;27;20191;-70
2023/01/31 08:24:37;;;;;;;21.20;6.82;;;;;;;3.24;100.00;101323.19;5004699;27;20040;-70
2023/01/31 08:27:03;;;;;;;20.58;5.80;;;;;;;3.27;100.00;101323.16;5043728;27;20022;-70
2023/01/31 08:29:28;;;;;;;18.17;6.63;;;;;;;3.29;100.00;101311.03;5035373;27;20033;-70
2023/01/31 08:31:53;;;;;;;15.85;7.32;;;;;;;3.42;100.00;101318.72;4987718;27;20052;-72
2023/01/31 08:34:19;;;;;;;17.52;6.45;;;;;;;3.46;100.00;101316.97;4980407;27;20045;-70
2023/01/31 08:36:45;;;;;;;23.52;7.95;;;;;;;3.53;100.00;101316.06;5033532;27;20019;-68
2023/01/31 08:39:10;;;;;;;19.83;6.65;;;;;;;3.56;100.00;101321.25;4994057;27;20901;-69
2023/01/31 08:41:37;;;;;;;19.85;7.70;;;;;;;3.59;100.00;101310.81;5007726;27;20094;-71
2023/01/31 08:44:03;;;;;;;15.68;7.40;;;;;;;3.51;100.00;101299.66;5001578;27;20037;-69
2023/01/31 08:46:31;;;;;;;17.75;6.28;;;;;;;3.59;100.00;101321.22;5026914;27;20857;-71
2023/01/31 08:48:57;;;;;;;16.80;6.43;;;;;;;3.57;100.00;101317.78;4986604;28;20085;-71
2023/01/31 08:51:23;;;;;;;17.17;7.45;;;;;;;3.58;100.00;101309.13;4987204;28;20028;-71
2023/01/31 08:53:48;;;;;;;16.95;7.78;;;;;;;3.38;100.00;101257.28;5003950;27;20052;-71
2023/01/31 08:56:14;;;;;;;23.08;6.95;;;;;;;3.69;100.00;101320.28;4998944;27;20131;-71
2023/01/31 08:58:42;;;;;;;23.20;8.75;;;;;;;3.68;100.00;101312.50;4992151;27;20032;-67
2023/01/31 09:01:10;;;;;;;21.85;7.10;;;;;;;3.65;100.00;101296.94;4998751;27;20082;-70
2023/01/31 09:03:35;;;;;;;29.90;8.20;;;;;;;3.44;100.00;101264.19;5004556;27;20029;-68
2023/01/31 09:06:03;;;;;;;18.85;8.15;;;;;;;3.56;100.00;101274.47;5003515;27;20158;-68
2023/01/31 09:08:29;;;;;;;17.95;8.05;;;;;;;3.66;100.00;101296.91;4982686;27;20845;-71
2023/01/31 09:10:56;;;;;;;16.20;7.32;;;;;;;3.63;100.00;101276.16;4971808;28;20033;-69
2023/01/31 09:13:22;;;;;;;24.80;8.30;;;;;;;3.76;100.00;101293.38;5005979;28;20047;-71
2023/01/31 09:15:57;;;;;;;21.50;8.00;;;;;;;3.73;100.00;101285.59;4994038;27;20025;-68
2023/01/31 09:18:22;;;;;;;18.42;7.18;;;;;;;3.73;100.00;101283.00;5015422;27;20037;-69
2023/01/31 09:20:48;;;;;;;20.58;7.65;;;;;;;3.79;100.00;101282.94;5011299;27;20021;-69
2023/01/31 09:23:13;;;;;;;25.52;8.63;;;;;;;3.84;100.00;101286.38;5004117;27;20895;-68
2023/01/31 09:25:38;;;;;;;20.95;7.55;;;;;;;3.93;100.00;101291.50;4995741;27;20089;-68
2023/01/31 09:28:04;;;;;;;23.50;8.88;;;;;;;3.93;100.00;101288.03;5004784;27;20028;-68
2023/01/31 09:30:29;;;;;;;26.77;8.45;;;;;;;3.94;100.00;101292.38;4997224;27;20105;-68
2023/01/31 09:32:54;;;;;;;15.70;8.02;;;;;;;3.97;100.00;101289.72;5012432;27;20021;-69
2023/01/31 09:35:20;;;;;;;27.73;8.43;;;;;;;3.92;100.00;101271.56;4992846;27;20957;-68
2023/01/31 09:37:45;;;;;;;23.38;8.90;;;;;;;4.05;100.00;101281.00;4982184;27;20053;-69
2023/01/31 09:40:18;;;;;;;23.08;7.70;;;;;;;4.17;100.00;101268.75;4992889;27;20788;-69
2023/01/31 09:42:44;;;;;;;26.00;8.02;;;;;;;4.22;100.00;101277.38;4993252;27;20033;-69
2023/01/31 09:45:12;;;;;;;23.30;9.45;;;;;;;4.16;100.00;101243.63;4976087;28;20033;-68
2023/01/31 09:47:42;;;;;;;21.98;9.10;;;;;;;4.34;100.00;101264.22;4982439;27;20132;-69
2023/01/31 09:50:19;;;;;;;22.08;8.05;;;;;;;4.23;100.00;101264.34;5007321;27;20072;-67
2023/01/31 09:52:44;;;;;;;24.10;8.02;;;;;;;4.08;100.00;101244.56;5016705;27;20056;-70
2023/01/31 09:55:16;;;;;;;16.88;9.00;;;;;;;4.02;100.00;101242.00;5026711;27;20054;-70
2023/01/31 09:57:44;;;;;;;24.48;9.23;;;;;;;4.10;100.00;101257.53;4991376;27;20090;-70
2023/01/31 10:00:42;;;;;;;24.98;9.43;;;;;;;4.09;100.00;101255.81;4993505;28;20120;-72
2023/01/31 10:03:45;;;;;;;28.75;8.95;;;;;;;4.10;100.00;101262.75;5002082;28;20017;-70
2023/01/31 10:06:31;;;;;;;22.30;9.73;;;;;;;4.15;100.00;101241.91;4993711;27;20139;-70
2023/01/31 10:09:10;;;;;;;25.83;9.48;;;;;;;4.08;100.00;101218.56;5008993;27;20139;-70
2023/01/31 10:11:40;;;;;;;24.23;10.20;;;;;;;4.27;100.00;101233.94;5007060;27;20032;-70
2023/01/31 10:14:29;;;;;;;24.50;10.85;;;;;;;4.35;100.00;101227.81;4985121;28;21052;-69
2023/01/31 10:16:59;;;;;;;26.45;10.30;;;;;;;4.23;100.00;101195.84;5014579;27;20041;-71
2023/01/31 10:19:29;;;;;;;23.45;10.25;;;;;;;4.16;100.00;101168.22;5040377;27;20036;-71
2023/01/31 10:21:59;;;;;;;26.08;10.88;;;;;;;4.38;100.00;101208.69;5049841;27;20024;-69
2023/01/31 10:24:32;;;;;;;36.85;11.65;;;;;;;4.41;100.00;101226.84;5017653;27;20083;-70
2023/01/31 10:27:44;;;;;;;27.10;11.63;;;;;;;4.52;100.00;101214.59;5056039;27;20027;-70
2023/01/31 10:30:20;;;;;;;30.48;11.43;;;;;;;4.55;100.00;101215.41;4983709;27;20140;-70
2023/01/31 10:32:50;;;;;;;21.00;9.02;;;;;;;4.46;100.00;101178.25;5007647;27;20161;-71
2023/01/31 10:35:51;;;;;;;24.52;10.43;;;;;;;4.67;100.00;101193.56;5019229;27;20907;-69
2023/01/31 10:38:40;;;;;;;22.40;9.43;;;;;;;4.73;100.00;101198.69;4985398;28;20043;-71
2023/01/31 10:41:13;;;;;;;28.90;11.43;;;;;;;4.73;100.00;101190.88;5056009;27;20049;-69
2023/01/31 10:43:45;;;;;;;24.40;9.55;;;;;;;4.67;100.00;101180.53;5000709;27;20034;-73
2023/01/31 10:46:11;;;;;;;27.73;10.95;;;;;;;4.79;100.00;101185.59;5054121;27;20155;-72
2023/01/31 10:48:37;;;;;;;26.52;11.60;;;;;;;4.81;100.00;101176.00;5020830;27;20057;-71
2023/01/31 10:51:25;;;;;;;26.77;9.95;;;;;;;4.85;100.00;101172.50;5018678;27;20039;-69
2023/01/31 10:54:03;;;;;;;25.88;10.02;;;;;;;4.95;100.00;101163.66;5037484;27;20025;-70
2023/01/31 10:56:34;;;;;;;20.13;8.98;;;;;;;5.03;100.00;101161.81;5017158;27;20033;-68
2023/01/31 10:59:07;;;;;;;27.40;9.55;;;;;;;5.01;100.00;101155.75;5025681;27;20081;-69
2023/01/31 11:01:33;;;;;;;23.55;10.30;;;;;;;5.08;100.00;101178.22;5015727;27;20090;-71
2023/01/31 11:04:00;;;;;;;18.35;9.68;;;;;;;5.04;100.00;101176.53;5079944;27;20138;-71
2023/01/31 11:06:26;;;;;;;18.00;8.45;;;;;;;5.18;100.00;101180.66;5025476;27;20035;-70
2023/01/31 11:08:55;;;;;;;23.63;10.00;;;;;;;4.87;100.00;101146.41;5031412;27;20128;-70
2023/01/31 11:11:23;;;;;;;23.35;9.63;;;;;;;5.10;100.00;101168.63;5022139;28;20017;-70
2023/01/31 11:13:59;;;;;;;24.35;9.35;;;;;;;5.02;100.00;101154.88;5018727;28;20759;-70
2023/01/31 11:16:29;;;;;;;22.67;9.07;;;;;;;5.17;100.00;101173.75;5021090;27;20030;-72
2023/01/31 11:18:57;;;;;;;23.15;9.60;;;;;;;5.23;100.00;101168.44;5074429;27;20025;-70
2023/01/31 11:21:25;;;;;;;26.15;8.65;;;;;;;5.20;100.00;101161.56;5030513;27;20025;-72
2023/01/31 11:23:51;;;;;;;28.55;7.50;;;;;;;5.24;100.00;101170.19;5042370;27;20078;-70
2023/01/31 11:26:30;;;;;;;20.17;9.20;;;;;;;5.07;100.00;101119.19;5008883;27;20381;-72